sensor_id;sensor_type;location;lat;lon;timestamp;P1;P2;P0
46044;PMS7003;31781;54.094;13.428;2024-02-14T00:04:19;5.00;5.00;4.00
46044;PMS7003;31781;54.094;13.428;2024-02-14T00:10:21;7.00;5.00;3.50
46044;PMS7003;31781;54.094;13.428;2024-02-14T00:16:24;5.00;5.00;5.00
46044;PMS7003;31781;54.094;13.428;2024-02-14T00:22:26;6.33;6.33;5.00
46044;PMS7003;31781;54.094;13.428;2024-02-14T00:28:27;5.00;5.00;3.00
46044;PMS7003;31781;54.094;13.428;2024-02-14T00:34:30;4.33;4.33;3.00
46044;PMS7003;31781;54.094;13.428;2024-02-14T00:40:32;3.50;3.50;3.00
46044;PMS7003;31781;54.094;13.428;2024-02-14T00:46:34;3.00;3.00;2.33
46044;PMS7003;31781;54.094;13.428;2024-02-14T00:52:37;6.00;6.00;5.33
46044;PMS7003;31781;54.094;13.428;2024-02-14T00:58:39;3.00;3.00;2.00
46044;PMS7003;31781;54.094;13.428;2024-02-14T01:04:40;3.67;3.67;2.33
46044;PMS7003;31781;54.094;13.428;2024-02-14T01:10:44;4.67;4.67;3.33
46044;PMS7003;31781;54.094;13.428;2024-02-14T01:16:45;8.00;5.33;3.67
46044;PMS7003;31781;54.094;13.428;2024-02-14T01:22:47;5.00;5.00;3.33
46044;PMS7003;31781;54.094;13.428;2024-02-14T01:28:50;4.67;4.67;3.33
46044;PMS7003;31781;54.094;13.428;2024-02-14T01:34:52;1.00;1.00;1.00
46044;PMS7003;31781;54.094;13.428;2024-02-14T01:40:53;5.33;5.00;3.33
46044;PMS7003;31781;54.094;13.428;2024-02-14T01:46:56;4.33;4.33;3.67
46044;PMS7003;31781;54.094;13.428;2024-02-14T01:52:58;6.00;6.00;4.33
46044;PMS7003;31781;54.094;13.428;2024-02-14T01:59:01;5.00;5.00;4.67
46044;PMS7003;31781;54.094;13.428;2024-02-14T02:05:05;2.33;2.33;2.33
46044;PMS7003;31781;54.094;13.428;2024-02-14T02:11:07;7.67;5.67;5.00
46044;PMS7003;31781;54.094;13.428;2024-02-14T02:17:09;4.67;4.67;3.33
46044;PMS7003;31781;54.094;13.428;2024-02-14T02:23:12;2.33;2.33;2.00
46044;PMS7003;31781;54.094;13.428;2024-02-14T02:29:13;4.33;4.33;2.33
46044;PMS7003;31781;54.094;13.428;2024-02-14T02:35:15;5.00;5.00;3.33
46044;PMS7003;31781;54.094;13.428;2024-02-14T02:41:18;3.33;3.33;2.67
46044;PMS7003;31781;54.094;13.428;2024-02-14T02:47:20;5.00;5.00;4.00
46044;PMS7003;31781;54.094;13.428;2024-02-14T02:53:22;3.33;3.33;3.33
46044;PMS7003;31781;54.094;13.428;2024-02-14T02:59:25;5.33;5.33;4.33
46044;PMS7003;31781;54.094;13.428;2024-02-14T03:05:27;7.00;5.00;4.00
46044;PMS7003;31781;54.094;13.428;2024-02-14T03:11:28;3.67;3.67;3.33
46044;PMS7003;31781;54.094;13.428;2024-02-14T03:17:31;4.00;4.00;2.33
46044;PMS7003;31781;54.094;13.428;2024-02-14T03:23:33;2.00;2.00;2.00
46044;PMS7003;31781;54.094;13.428;2024-02-14T03:29:36;2.00;2.00;1.33
46044;PMS7003;31781;54.094;13.428;2024-02-14T03:35:39;4.00;4.00;2.00
46044;PMS7003;31781;54.094;13.428;2024-02-14T03:41:41;3.33;3.33;2.67
46044;PMS7003;31781;54.094;13.428;2024-02-14T03:47:43;5.00;4.00;4.00
46044;PMS7003;31781;54.094;13.428;2024-02-14T03:53:46;4.00;4.00;2.67
46044;PMS7003;31781;54.094;13.428;2024-02-14T03:59:47;4.00;4.00;4.00
46044;PMS7003;31781;54.094;13.428;2024-02-14T04:05:49;5.00;5.00;4.00
46044;PMS7003;31781;54.094;13.428;2024-02-14T04:11:52;2.00;2.00;1.67
46044;PMS7003;31781;54.094;13.428;2024-02-14T04:17:54;2.00;2.00;2.00
46044;PMS7003;31781;54.094;13.428;2024-02-14T04:23:56;2.00;2.00;2.00
46044;PMS7003;31781;54.094;13.428;2024-02-14T04:29:59;2.00;2.00;1.67
46044;PMS7003;31781;54.094;13.428;2024-02-14T04:36:01;4.00;4.00;2.00
46044;PMS7003;31781;54.094;13.428;2024-02-14T04:42:03;1.33;1.33;1.00
46044;PMS7003;31781;54.094;13.428;2024-02-14T04:48:07;5.00;5.00;4.00
46044;PMS7003;31781;54.094;13.428;2024-02-14T04:54:09;1.67;1.67;1.33
46044;PMS7003;31781;54.094;13.428;2024-02-14T05:00:11;4.33;4.33;4.00
46044;PMS7003;31781;54.094;13.428;2024-02-14T05:06:15;2.00;2.00;2.00
46044;PMS7003;31781;54.094;13.428;2024-02-14T05:12:17;1.67;1.67;1.33
46044;PMS7003;31781;54.094;13.428;2024-02-14T05:18:19;2.00;2.00;2.00
46044;PMS7003;31781;54.094;13.428;2024-02-14T05:24:22;2.67;2.67;2.67
46044;PMS7003;31781;54.094;13.428;2024-02-14T05:30:24;3.33;3.33;2.00
46044;PMS7003;31781;54.094;13.428;2024-02-14T05:36:25;5.00;2.00;2.00
46044;PMS7003;31781;54.094;13.428;2024-02-14T05:42:28;4.00;4.00;4.00
46044;PMS7003;31781;54.094;13.428;2024-02-14T05:48:30;2.67;2.67;2.00
46044;PMS7003;31781;54.094;13.428;2024-02-14T05:54:32;3.33;3.33;2.00
46044;PMS7003;31781;54.094;13.428;2024-02-14T06:00:36;5.00;4.00;2.67
46044;PMS7003;31781;54.094;13.428;2024-02-14T06:06:38;4.67;4.67;4.00
46044;PMS7003;31781;54.094;13.428;2024-02-14T06:12:40;4.67;4.33;4.00
46044;PMS7003;31781;54.094;13.428;2024-02-14T06:18:43;4.00;4.00;4.00
46044;PMS7003;31781;54.094;13.428;2024-02-14T06:24:45;5.67;5.00;4.00
46044;PMS7003;31781;54.094;13.428;2024-02-14T06:30:46;2.67;2.67;2.00
46044;PMS7003;31781;54.094;13.428;2024-02-14T06:36:49;4.00;4.00;2.00
46044;PMS7003;31781;54.094;13.428;2024-02-14T06:42:51;7.33;5.33;4.33
46044;PMS7003;31781;54.094;13.428;2024-02-14T06:48:53;6.00;6.00;5.00
46044;PMS7003;31781;54.094;13.428;2024-02-14T06:54:56;4.67;4.67;4.00
46044;PMS7003;31781;54.094;13.428;2024-02-14T07:00:57;5.00;5.00;4.00
46044;PMS7003;31781;54.094;13.428;2024-02-14T07:06:59;4.00;4.00;2.00
46044;PMS7003;31781;54.094;13.428;2024-02-14T07:13:03;4.00;4.00;4.00
46044;PMS7003;31781;54.094;13.428;2024-02-14T07:19:05;4.00;4.00;2.67
46044;PMS7003;31781;54.094;13.428;2024-02-14T07:25:07;5.67;5.67;4.67
46044;PMS7003;31781;54.094;13.428;2024-02-14T07:31:10;6.67;4.33;2.67
46044;PMS7003;31781;54.094;13.428;2024-02-14T07:37:12;3.67;3.33;2.00
46044;PMS7003;31781;54.094;13.428;2024-02-14T07:43:14;4.00;4.00;2.00
46044;PMS7003;31781;54.094;13.428;2024-02-14T07:49:17;6.67;5.00;4.00
46044;PMS7003;31781;54.094;13.428;2024-02-14T07:55:19;4.33;4.00;2.00
46044;PMS7003;31781;54.094;13.428;2024-02-14T08:01:21;6.00;6.00;5.00
46044;PMS7003;31781;54.094;13.428;2024-02-14T08:07:24;5.33;4.00;2.67
46044;PMS7003;31781;54.094;13.428;2024-02-14T08:13:25;5.00;5.00;4.00
46044;PMS7003;31781;54.094;13.428;2024-02-14T08:19:27;6.00;6.00;5.00
46044;PMS7003;31781;54.094;13.428;2024-02-14T08:25:30;5.00;5.00;4.00
46044;PMS7003;31781;54.094;13.428;2024-02-14T08:31:32;5.67;5.67;5.00
46044;PMS7003;31781;54.094;13.428;2024-02-14T08:37:34;9.00;6.33;5.00
46044;PMS7003;31781;54.094;13.428;2024-02-14T08:43:38;5.33;5.33;4.33
46044;PMS7003;31781;54.094;13.428;2024-02-14T08:49:40;5.33;5.33;4.33
46044;PMS7003;31781;54.094;13.428;2024-02-14T08:55:42;10.00;6.00;5.00
46044;PMS7003;31781;54.094;13.428;2024-02-14T09:01:45;5.67;5.67;5.00
46044;PMS7003;31781;54.094;13.428;2024-02-14T09:07:47;6.67;6.67;5.67
46044;PMS7003;31781;54.094;13.428;2024-02-14T09:13:48;6.00;6.00;5.00
46044;PMS7003;31781;54.094;13.428;2024-02-14T09:19:52;10.00;9.67;6.00
46044;PMS7003;31781;54.094;13.428;2024-02-14T09:25:53;6.00;6.00;5.00
46044;PMS7003;31781;54.094;13.428;2024-02-14T09:31:55;6.67;6.67;5.67
46044;PMS7003;31781;54.094;13.428;2024-02-14T09:37:58;5.67;5.67;3.67
46044;PMS7003;31781;54.094;13.428;2024-02-14T09:44:00;4.67;4.67;2.33
46044;PMS7003;31781;54.094;13.428;2024-02-14T09:50:01;6.00;6.00;5.00
46044;PMS7003;31781;54.094;13.428;2024-02-14T09:56:05;7.00;7.00;5.00
46044;PMS7003;31781;54.094;13.428;2024-02-14T10:02:07;9.00;9.00;6.00
46044;PMS7003;31781;54.094;13.428;2024-02-14T10:08:09;8.50;8.50;6.00
46044;PMS7003;31781;54.094;13.428;2024-02-14T10:14:13;8.33;8.33;6.00
46044;PMS7003;31781;54.094;13.428;2024-02-14T10:20:16;9.67;9.67;7.00
46044;PMS7003;31781;54.094;13.428;2024-02-14T10:26:19;8.33;8.33;7.33
46044;PMS7003;31781;54.094;13.428;2024-02-14T10:32:22;9.00;9.00;8.33
46044;PMS7003;31781;54.094;13.428;2024-02-14T10:38:24;14.00;11.33;10.00
46044;PMS7003;31781;54.094;13.428;2024-02-14T10:44:26;6.33;6.33;5.00
46044;PMS7003;31781;54.094;13.428;2024-02-14T10:50:29;7.00;7.00;5.67
46044;PMS7003;31781;54.094;13.428;2024-02-14T10:56:34;11.33;7.67;6.00
46044;PMS7003;31781;54.094;13.428;2024-02-14T11:02:40;7.00;7.00;6.00
46044;PMS7003;31781;54.094;13.428;2024-02-14T11:08:56;8.00;8.00;7.00
46044;PMS7003;31781;54.094;13.428;2024-02-14T11:15:00;11.00;11.00;8.00
46044;PMS7003;31781;54.094;13.428;2024-02-14T11:21:04;7.00;7.00;6.00
46044;PMS7003;31781;54.094;13.428;2024-02-14T11:27:19;7.00;7.00;7.00
46044;PMS7003;31781;54.094;13.428;2024-02-14T11:33:34;11.00;11.00;8.33
46044;PMS7003;31781;54.094;13.428;2024-02-14T11:39:36;9.00;9.00;7.00
46044;PMS7003;31781;54.094;13.428;2024-02-14T11:45:39;8.33;7.00;7.00
46044;PMS7003;31781;54.094;13.428;2024-02-14T11:51:41;10.00;10.00;7.00
46044;PMS7003;31781;54.094;13.428;2024-02-14T11:57:43;8.00;8.00;6.00
46044;PMS7003;31781;54.094;13.428;2024-02-14T12:03:46;10.67;10.67;6.33
46044;PMS7003;31781;54.094;13.428;2024-02-14T12:09:48;9.75;7.50;6.25
46044;PMS7003;31781;54.094;13.428;2024-02-14T12:15:50;8.50;6.25;5.75
46044;PMS7003;31781;54.094;13.428;2024-02-14T12:21:54;8.75;8.25;6.75
46044;PMS7003;31781;54.094;13.428;2024-02-14T12:27:56;6.50;6.50;6.00
46044;PMS7003;31781;54.094;13.428;2024-02-14T12:33:59;9.75;6.25;5.25
46044;PMS7003;31781;54.094;13.428;2024-02-14T12:40:04;11.50;8.00;6.50
46044;PMS7003;31781;54.094;13.428;2024-02-14T12:46:06;6.00;6.00;5.00
46044;PMS7003;31781;54.094;13.428;2024-02-14T12:52:08;5.25;5.00;3.00
46044;PMS7003;31781;54.094;13.428;2024-02-14T12:58:11;9.25;9.25;7.50
46044;PMS7003;31781;54.094;13.428;2024-02-14T13:04:13;10.00;7.25;7.00
46044;PMS7003;31781;54.094;13.428;2024-02-14T13:10:14;11.00;9.75;6.75
46044;PMS7003;31781;54.094;13.428;2024-02-14T13:16:18;8.00;8.00;6.00
46044;PMS7003;31781;54.094;13.428;2024-02-14T13:22:19;10.50;9.25;7.00
46044;PMS7003;31781;54.094;13.428;2024-02-14T13:28:21;12.50;10.75;7.75
46044;PMS7003;31781;54.094;13.428;2024-02-14T13:34:25;10.75;10.75;7.75
46044;PMS7003;31781;54.094;13.428;2024-02-14T13:40:26;8.00;8.00;6.50
46044;PMS7003;31781;54.094;13.428;2024-02-14T13:46:28;10.75;10.75;9.75
46044;PMS7003;31781;54.094;13.428;2024-02-14T13:52:31;10.75;10.75;7.00
46044;PMS7003;31781;54.094;13.428;2024-02-14T13:58:33;11.50;11.50;8.00
46044;PMS7003;31781;54.094;13.428;2024-02-14T14:04:35;10.25;10.25;8.00
46044;PMS7003;31781;54.094;13.428;2024-02-14T14:10:38;12.25;10.00;8.00
46044;PMS7003;31781;54.094;13.428;2024-02-14T14:16:39;10.50;10.50;7.50
46044;PMS7003;31781;54.094;13.428;2024-02-14T14:22:41;6.75;6.75;6.00
46044;PMS7003;31781;54.094;13.428;2024-02-14T14:28:44;9.00;9.00;7.25
46044;PMS7003;31781;54.094;13.428;2024-02-14T14:34:46;6.00;3.25;1.25
46044;PMS7003;31781;54.094;13.428;2024-02-14T14:40:48;10.75;8.00;6.00
46044;PMS7003;31781;54.094;13.428;2024-02-14T14:46:51;8.50;8.50;6.50
46044;PMS7003;31781;54.094;13.428;2024-02-14T14:52:53;7.00;7.00;6.50
46044;PMS7003;31781;54.094;13.428;2024-02-14T14:58:55;8.75;7.00;6.75
46044;PMS7003;31781;54.094;13.428;2024-02-14T15:05:00;7.50;7.50;5.00
46044;PMS7003;31781;54.094;13.428;2024-02-14T15:11:02;12.25;10.50;7.50
46044;PMS7003;31781;54.094;13.428;2024-02-14T15:17:03;7.25;7.25;6.25
46044;PMS7003;31781;54.094;13.428;2024-02-14T15:23:06;7.50;7.50;6.25
46044;PMS7003;31781;54.094;13.428;2024-02-14T15:29:08;8.75;7.50;5.75
46044;PMS7003;31781;54.094;13.428;2024-02-14T15:35:10;4.25;4.25;4.25
46044;PMS7003;31781;54.094;13.428;2024-02-14T15:41:13;7.00;7.00;5.00
46044;PMS7003;31781;54.094;13.428;2024-02-14T15:47:15;6.00;6.00;4.25
46044;PMS7003;31781;54.094;13.428;2024-02-14T15:53:17;6.50;6.50;5.50
46044;PMS7003;31781;54.094;13.428;2024-02-14T15:59:20;8.75;6.00;4.25
46044;PMS7003;31781;54.094;13.428;2024-02-14T16:05:21;7.00;6.00;5.75
46044;PMS7003;31781;54.094;13.428;2024-02-14T16:11:23;5.75;3.00;3.00
46044;PMS7003;31781;54.094;13.428;2024-02-14T16:17:26;7.00;7.00;6.00
46044;PMS7003;31781;54.094;13.428;2024-02-14T16:23:28;7.00;7.00;6.25
46044;PMS7003;31781;54.094;13.428;2024-02-14T16:29:30;6.75;6.50;5.75
46044;PMS7003;31781;54.094;13.428;2024-02-14T16:35:33;8.00;8.00;7.00
46044;PMS7003;31781;54.094;13.428;2024-02-14T16:41:35;8.00;8.00;6.50
46044;PMS7003;31781;54.094;13.428;2024-02-14T16:47:37;8.00;8.00;6.25
46044;PMS7003;31781;54.094;13.428;2024-02-14T16:53:41;11.75;6.75;6.00
46044;PMS7003;31781;54.094;13.428;2024-02-14T16:59:43;8.00;8.00;7.25
46044;PMS7003;31781;54.094;13.428;2024-02-14T17:05:45;9.25;8.00;6.00
46044;PMS7003;31781;54.094;13.428;2024-02-14T17:11:49;7.00;7.00;6.25
46044;PMS7003;31781;54.094;13.428;2024-02-14T17:17:51;7.00;7.00;6.00
46044;PMS7003;31781;54.094;13.428;2024-02-14T17:23:52;7.50;7.50;7.00
46044;PMS7003;31781;54.094;13.428;2024-02-14T17:29:55;8.00;8.00;7.00
46044;PMS7003;31781;54.094;13.428;2024-02-14T17:35:57;11.00;7.50;6.25
46044;PMS7003;31781;54.094;13.428;2024-02-14T17:41:59;8.25;8.25;6.25
46044;PMS7003;31781;54.094;13.428;2024-02-14T17:48:02;7.00;7.00;6.25
46044;PMS7003;31781;54.094;13.428;2024-02-14T17:54:04;11.00;8.50;6.50
46044;PMS7003;31781;54.094;13.428;2024-02-14T18:00:07;10.75;10.75;6.25
46044;PMS7003;31781;54.094;13.428;2024-02-14T18:06:11;8.25;7.00;5.25
46044;PMS7003;31781;54.094;13.428;2024-02-14T18:12:12;4.25;4.25;3.00
46044;PMS7003;31781;54.094;13.428;2024-02-14T18:18:15;3.00;3.00;2.25
46044;PMS7003;31781;54.094;13.428;2024-02-14T18:24:18;3.25;3.25;3.00
46044;PMS7003;31781;54.094;13.428;2024-02-14T18:30:20;3.75;3.25;2.75
46044;PMS7003;31781;54.094;13.428;2024-02-14T18:36:21;2.75;2.00;2.00
46044;PMS7003;31781;54.094;13.428;2024-02-14T18:42:25;6.00;6.00;4.25
46044;PMS7003;31781;54.094;13.428;2024-02-14T18:48:26;7.25;5.50;4.25
46044;PMS7003;31781;54.094;13.428;2024-02-14T18:54:29;6.50;6.50;6.00
46044;PMS7003;31781;54.094;13.428;2024-02-14T19:00:32;6.50;6.50;3.50
46044;PMS7003;31781;54.094;13.428;2024-02-14T19:06:34;7.50;7.50;5.50
46044;PMS7003;31781;54.094;13.428;2024-02-14T19:12:36;6.50;6.50;4.25
46044;PMS7003;31781;54.094;13.428;2024-02-14T19:18:39;8.25;7.00;6.25
46044;PMS7003;31781;54.094;13.428;2024-02-14T19:24:41;9.00;9.00;6.75
46044;PMS7003;31781;54.094;13.428;2024-02-14T19:30:43;11.75;11.75;7.75
46044;PMS7003;31781;54.094;13.428;2024-02-14T19:36:46;11.00;9.75;7.50
46044;PMS7003;31781;54.094;13.428;2024-02-14T19:42:48;12.50;11.25;8.25
46044;PMS7003;31781;54.094;13.428;2024-02-14T19:48:50;13.25;12.00;7.75
46044;PMS7003;31781;54.094;13.428;2024-02-14T19:54:53;15.50;13.75;8.25
46044;PMS7003;31781;54.094;13.428;2024-02-14T20:00:55;10.50;10.50;8.00
46044;PMS7003;31781;54.094;13.428;2024-02-14T20:06:56;10.75;10.75;8.75
46044;PMS7003;31781;54.094;13.428;2024-02-14T20:12:59;13.50;11.00;8.00
46044;PMS7003;31781;54.094;13.428;2024-02-14T20:19:02;11.50;11.50;8.00
46044;PMS7003;31781;54.094;13.428;2024-02-14T20:25:04;12.00;11.75;9.00
46044;PMS7003;31781;54.094;13.428;2024-02-14T20:31:07;13.25;13.25;9.00
46044;PMS7003;31781;54.094;13.428;2024-02-14T20:37:09;8.50;8.50;7.25
46044;PMS7003;31781;54.094;13.428;2024-02-14T20:43:11;12.50;12.50;7.25
46044;PMS7003;31781;54.094;13.428;2024-02-14T20:49:14;13.00;13.00;8.75
46044;PMS7003;31781;54.094;13.428;2024-02-14T20:55:16;14.00;13.00;8.25
46044;PMS7003;31781;54.094;13.428;2024-02-14T21:01:18;15.00;13.75;8.50
46044;PMS7003;31781;54.094;13.428;2024-02-14T21:07:21;15.75;14.25;8.00
46044;PMS7003;31781;54.094;13.428;2024-02-14T21:13:23;13.25;13.00;8.50
46044;PMS7003;31781;54.094;13.428;2024-02-14T21:19:25;11.25;11.25;8.00
46044;PMS7003;31781;54.094;13.428;2024-02-14T21:25:28;13.75;13.75;10.00
46044;PMS7003;31781;54.094;13.428;2024-02-14T21:31:30;13.50;10.50;9.00
46044;PMS7003;31781;54.094;13.428;2024-02-14T21:37:32;17.50;16.00;9.00
46044;PMS7003;31781;54.094;13.428;2024-02-14T21:43:35;14.75;12.50;9.25
46044;PMS7003;31781;54.094;13.428;2024-02-14T21:49:37;15.50;12.00;8.00
46044;PMS7003;31781;54.094;13.428;2024-02-14T21:55:40;9.00;9.00;6.50
46044;PMS7003;31781;54.094;13.428;2024-02-14T22:01:43;15.00;12.50;8.50
46044;PMS7003;31781;54.094;13.428;2024-02-14T22:07:45;17.00;15.50;9.75
46044;PMS7003;31781;54.094;13.428;2024-02-14T22:13:46;15.25;13.25;8.00
46044;PMS7003;31781;54.094;13.428;2024-02-14T22:19:49;11.50;11.50;8.00
46044;PMS7003;31781;54.094;13.428;2024-02-14T22:25:51;12.50;12.25;8.50
46044;PMS7003;31781;54.094;13.428;2024-02-14T22:31:53;14.25;14.25;9.25
46044;PMS7003;31781;54.094;13.428;2024-02-14T22:37:56;12.50;12.50;9.75
46044;PMS7003;31781;54.094;13.428;2024-02-14T22:43:58;11.00;11.00;8.75
46044;PMS7003;31781;54.094;13.428;2024-02-14T22:49:59;11.50;11.50;8.50
46044;PMS7003;31781;54.094;13.428;2024-02-14T22:56:02;10.75;9.75;7.75
46044;PMS7003;31781;54.094;13.428;2024-02-14T23:02:04;11.75;11.50;8.00
46044;PMS7003;31781;54.094;13.428;2024-02-14T23:08:06;8.75;8.75;5.50
46044;PMS7003;31781;54.094;13.428;2024-02-14T23:14:09;10.50;10.00;8.00
46044;PMS7003;31781;54.094;13.428;2024-02-14T23:20:11;11.75;10.50;7.75
46044;PMS7003;31781;54.094;13.428;2024-02-14T23:26:13;10.75;10.00;7.75
46044;PMS7003;31781;54.094;13.428;2024-02-14T23:32:17;10.00;8.25;6.50
46044;PMS7003;31781;54.094;13.428;2024-02-14T23:38:18;14.25;12.25;9.00
46044;PMS7003;31781;54.094;13.428;2024-02-14T23:44:20;9.00;9.00;7.75
46044;PMS7003;31781;54.094;13.428;2024-02-14T23:50:23;11.00;11.00;8.75
46044;PMS7003;31781;54.094;13.428;2024-02-14T23:56:25;12.25;12.25;9.50
